sensor_id;sensor_type;location;lat;lon;timestamp;P1;durP1;ratioP1;P2;durP2;ratioP2
67546;SDS011;54381;53.516;49.424;2022-07-05T00:00:48;6.70;;;4.60;;
67546;SDS011;54381;53.516;49.424;2022-07-05T00:03:14;14.98;;;5.30;;
67546;SDS011;54381;53.516;49.424;2022-07-05T00:05:40;7.68;;;4.22;;
67546;SDS011;54381;53.516;49.424;2022-07-05T00:08:07;12.77;;;5.22;;
67546;SDS011;54381;53.516;49.424;2022-07-05T00:10:33;8.68;;;5.22;;
67546;SDS011;54381;53.516;49.424;2022-07-05T00:13:01;8.77;;;4.78;;
67546;SDS011;54381;53.516;49.424;2022-07-05T00:15:28;7.72;;;4.72;;
67546;SDS011;54381;53.516;49.424;2022-07-05T00:17:54;13.25;;;4.30;;
67546;SDS011;54381;53.516;49.424;2022-07-05T00:20:21;5.68;;;4.13;;
67546;SDS011;54381;53.516;49.424;2022-07-05T00:22:47;10.20;;;4.60;;
67546;SDS011;54381;53.516;49.424;2022-07-05T00:25:13;10.93;;;4.75;;
67546;SDS011;54381;53.516;49.424;2022-07-05T00:27:40;7.45;;;4.43;;
67546;SDS011;54381;53.516;49.424;2022-07-05T00:30:07;8.27;;;4.55;;
67546;SDS011;54381;53.516;49.424;2022-07-05T00:32:34;8.80;;;4.35;;
67546;SDS011;54381;53.516;49.424;2022-07-05T00:35:02;8.02;;;3.88;;
67546;SDS011;54381;53.516;49.424;2022-07-05T00:37:29;11.63;;;3.85;;
67546;SDS011;54381;53.516;49.424;2022-07-05T00:39:55;6.18;;;3.88;;
67546;SDS011;54381;53.516;49.424;2022-07-05T00:42:22;11.60;;;3.80;;
67546;SDS011;54381;53.516;49.424;2022-07-05T00:44:48;6.90;;;3.90;;
67546;SDS011;54381;53.516;49.424;2022-07-05T00:47:14;7.55;;;3.53;;
67546;SDS011;54381;53.516;49.424;2022-07-05T00:49:41;9.40;;;3.80;;
67546;SDS011;54381;53.516;49.424;2022-07-05T00:52:08;5.38;;;3.55;;
67546;SDS011;54381;53.516;49.424;2022-07-05T00:54:36;5.68;;;3.55;;
67546;SDS011;54381;53.516;49.424;2022-07-05T00:57:03;10.85;;;3.25;;
67546;SDS011;54381;53.516;49.424;2022-07-05T00:59:30;7.47;;;3.25;;
67546;SDS011;54381;53.516;49.424;2022-07-05T01:01:57;5.28;;;3.17;;
67546;SDS011;54381;53.516;49.424;2022-07-05T01:04:24;5.50;;;2.90;;
67546;SDS011;54381;53.516;49.424;2022-07-05T01:06:50;6.50;;;3.03;;
67546;SDS011;54381;53.516;49.424;2022-07-05T01:09:18;8.05;;;3.55;;
67546;SDS011;54381;53.516;49.424;2022-07-05T01:11:46;3.67;;;2.97;;
67546;SDS011;54381;53.516;49.424;2022-07-05T01:14:15;9.30;;;3.92;;
67546;SDS011;54381;53.516;49.424;2022-07-05T01:16:43;12.75;;;4.20;;
67546;SDS011;54381;53.516;49.424;2022-07-05T01:19:10;15.38;;;6.05;;
67546;SDS011;54381;53.516;49.424;2022-07-05T01:21:41;13.07;;;6.90;;
67546;SDS011;54381;53.516;49.424;2022-07-05T01:24:12;35.95;;;13.82;;
67546;SDS011;54381;53.516;49.424;2022-07-05T01:26:41;39.17;;;14.82;;
67546;SDS011;54381;53.516;49.424;2022-07-05T01:29:10;36.10;;;15.07;;
67546;SDS011;54381;53.516;49.424;2022-07-05T01:31:36;76.13;;;29.85;;
67546;SDS011;54381;53.516;49.424;2022-07-05T01:34:04;92.82;;;35.53;;
67546;SDS011;54381;53.516;49.424;2022-07-05T01:36:31;94.38;;;39.63;;
67546;SDS011;54381;53.516;49.424;2022-07-05T01:38:59;102.53;;;41.15;;
67546;SDS011;54381;53.516;49.424;2022-07-05T01:41:27;99.30;;;38.58;;
67546;SDS011;54381;53.516;49.424;2022-07-05T01:43:53;100.78;;;40.50;;
67546;SDS011;54381;53.516;49.424;2022-07-05T01:46:20;66.35;;;27.98;;
67546;SDS011;54381;53.516;49.424;2022-07-05T01:48:47;27.38;;;13.88;;
67546;SDS011;54381;53.516;49.424;2022-07-05T01:51:18;21.98;;;9.00;;
67546;SDS011;54381;53.516;49.424;2022-07-05T01:53:49;25.15;;;11.20;;
67546;SDS011;54381;53.516;49.424;2022-07-05T01:56:18;15.32;;;6.85;;
67546;SDS011;54381;53.516;49.424;2022-07-05T01:58:45;14.82;;;7.07;;
67546;SDS011;54381;53.516;49.424;2022-07-05T02:01:12;19.38;;;7.38;;
67546;SDS011;54381;53.516;49.424;2022-07-05T02:03:39;19.75;;;9.27;;
67546;SDS011;54381;53.516;49.424;2022-07-05T02:06:06;17.98;;;8.57;;
67546;SDS011;54381;53.516;49.424;2022-07-05T02:08:34;17.67;;;7.00;;
67546;SDS011;54381;53.516;49.424;2022-07-05T02:11:00;13.68;;;3.95;;
67546;SDS011;54381;53.516;49.424;2022-07-05T02:13:26;12.43;;;3.10;;
67546;SDS011;54381;53.516;49.424;2022-07-05T02:15:52;12.82;;;3.45;;
67546;SDS011;54381;53.516;49.424;2022-07-05T02:18:18;6.03;;;2.60;;
67546;SDS011;54381;53.516;49.424;2022-07-05T02:20:45;19.25;;;6.45;;
67546;SDS011;54381;53.516;49.424;2022-07-05T02:23:11;8.70;;;2.90;;
67546;SDS011;54381;53.516;49.424;2022-07-05T02:25:37;10.10;;;3.05;;
67546;SDS011;54381;53.516;49.424;2022-07-05T02:28:03;8.65;;;2.60;;
67546;SDS011;54381;53.516;49.424;2022-07-05T02:30:30;9.13;;;2.92;;
67546;SDS011;54381;53.516;49.424;2022-07-05T02:32:56;9.48;;;2.75;;
67546;SDS011;54381;53.516;49.424;2022-07-05T02:35:22;6.90;;;2.47;;
67546;SDS011;54381;53.516;49.424;2022-07-05T02:37:49;8.93;;;2.30;;
67546;SDS011;54381;53.516;49.424;2022-07-05T02:40:15;10.52;;;3.15;;
67546;SDS011;54381;53.516;49.424;2022-07-05T02:42:41;22.50;;;13.32;;
67546;SDS011;54381;53.516;49.424;2022-07-05T02:45:07;14.90;;;6.68;;
67546;SDS011;54381;53.516;49.424;2022-07-05T02:47:34;16.73;;;9.35;;
67546;SDS011;54381;53.516;49.424;2022-07-05T02:50:04;28.80;;;13.48;;
67546;SDS011;54381;53.516;49.424;2022-07-05T02:52:34;20.17;;;10.82;;
67546;SDS011;54381;53.516;49.424;2022-07-05T02:55:03;26.48;;;12.43;;
67546;SDS011;54381;53.516;49.424;2022-07-05T02:57:30;23.67;;;13.73;;
67546;SDS011;54381;53.516;49.424;2022-07-05T02:59:57;15.50;;;7.50;;
67546;SDS011;54381;53.516;49.424;2022-07-05T03:02:23;11.70;;;3.67;;
67546;SDS011;54381;53.516;49.424;2022-07-05T03:04:50;14.63;;;3.83;;
67546;SDS011;54381;53.516;49.424;2022-07-05T03:07:16;7.38;;;3.15;;
67546;SDS011;54381;53.516;49.424;2022-07-05T03:09:42;5.10;;;1.98;;
67546;SDS011;54381;53.516;49.424;2022-07-05T03:12:08;8.10;;;2.15;;
67546;SDS011;54381;53.516;49.424;2022-07-05T03:14:34;14.95;;;3.13;;
67546;SDS011;54381;53.516;49.424;2022-07-05T03:17:01;15.00;;;3.78;;
67546;SDS011;54381;53.516;49.424;2022-07-05T03:19:27;6.07;;;3.72;;
67546;SDS011;54381;53.516;49.424;2022-07-05T03:21:53;12.85;;;2.55;;
67546;SDS011;54381;53.516;49.424;2022-07-05T03:24:19;10.40;;;3.28;;
67546;SDS011;54381;53.516;49.424;2022-07-05T03:26:46;6.13;;;2.33;;
67546;SDS011;54381;53.516;49.424;2022-07-05T03:29:12;22.17;;;2.20;;
67546;SDS011;54381;53.516;49.424;2022-07-05T03:31:38;12.55;;;2.78;;
67546;SDS011;54381;53.516;49.424;2022-07-05T03:34:04;9.60;;;5.53;;
67546;SDS011;54381;53.516;49.424;2022-07-05T03:36:31;32.58;;;15.23;;
67546;SDS011;54381;53.516;49.424;2022-07-05T03:38:57;30.55;;;17.13;;
67546;SDS011;54381;53.516;49.424;2022-07-05T03:41:23;44.92;;;24.75;;
67546;SDS011;54381;53.516;49.424;2022-07-05T03:43:49;37.83;;;21.55;;
67546;SDS011;54381;53.516;49.424;2022-07-05T03:46:15;33.33;;;18.45;;
67546;SDS011;54381;53.516;49.424;2022-07-05T03:48:41;32.90;;;18.98;;
67546;SDS011;54381;53.516;49.424;2022-07-05T03:51:08;49.53;;;28.45;;
67546;SDS011;54381;53.516;49.424;2022-07-05T03:53:34;47.50;;;28.15;;
67546;SDS011;54381;53.516;49.424;2022-07-05T03:56:00;42.45;;;25.95;;
67546;SDS011;54381;53.516;49.424;2022-07-05T03:58:27;19.70;;;10.13;;
67546;SDS011;54381;53.516;49.424;2022-07-05T04:00:53;18.67;;;7.93;;
67546;SDS011;54381;53.516;49.424;2022-07-05T04:03:19;11.25;;;5.53;;
67546;SDS011;54381;53.516;49.424;2022-07-05T04:05:45;11.32;;;4.10;;
67546;SDS011;54381;53.516;49.424;2022-07-05T04:08:11;16.92;;;8.98;;
67546;SDS011;54381;53.516;49.424;2022-07-05T04:10:38;23.23;;;11.48;;
67546;SDS011;54381;53.516;49.424;2022-07-05T04:13:04;16.00;;;9.68;;
67546;SDS011;54381;53.516;49.424;2022-07-05T04:15:30;12.27;;;7.22;;
67546;SDS011;54381;53.516;49.424;2022-07-05T04:17:56;22.35;;;11.80;;
67546;SDS011;54381;53.516;49.424;2022-07-05T04:20:23;27.65;;;9.52;;
67546;SDS011;54381;53.516;49.424;2022-07-05T04:22:50;24.75;;;10.88;;
67546;SDS011;54381;53.516;49.424;2022-07-05T04:25:17;30.98;;;14.77;;
67546;SDS011;54381;53.516;49.424;2022-07-05T04:27:50;21.63;;;10.80;;
67546;SDS011;54381;53.516;49.424;2022-07-05T04:30:22;16.25;;;6.65;;
67546;SDS011;54381;53.516;49.424;2022-07-05T04:32:49;17.45;;;7.07;;
67546;SDS011;54381;53.516;49.424;2022-07-05T04:35:16;15.65;;;6.95;;
67546;SDS011;54381;53.516;49.424;2022-07-05T04:37:43;10.75;;;4.22;;
67546;SDS011;54381;53.516;49.424;2022-07-05T04:40:10;13.07;;;2.40;;
67546;SDS011;54381;53.516;49.424;2022-07-05T04:42:37;8.15;;;2.63;;
67546;SDS011;54381;53.516;49.424;2022-07-05T04:45:04;7.78;;;3.42;;
67546;SDS011;54381;53.516;49.424;2022-07-05T04:47:31;7.57;;;1.75;;
67546;SDS011;54381;53.516;49.424;2022-07-05T04:49:57;9.23;;;3.17;;
67546;SDS011;54381;53.516;49.424;2022-07-05T04:52:24;6.63;;;2.65;;
67546;SDS011;54381;53.516;49.424;2022-07-05T04:54:50;8.60;;;1.75;;
67546;SDS011;54381;53.516;49.424;2022-07-05T04:57:17;12.93;;;1.60;;
67546;SDS011;54381;53.516;49.424;2022-07-05T04:59:43;5.82;;;0.80;;
67546;SDS011;54381;53.516;49.424;2022-07-05T05:02:09;5.78;;;0.85;;
67546;SDS011;54381;53.516;49.424;2022-07-05T05:04:36;5.00;;;1.20;;
67546;SDS011;54381;53.516;49.424;2022-07-05T05:07:02;3.53;;;1.10;;
67546;SDS011;54381;53.516;49.424;2022-07-05T05:09:28;13.70;;;1.20;;
67546;SDS011;54381;53.516;49.424;2022-07-05T05:11:55;5.50;;;1.42;;
67546;SDS011;54381;53.516;49.424;2022-07-05T05:14:21;8.40;;;4.25;;
67546;SDS011;54381;53.516;49.424;2022-07-05T05:16:47;13.32;;;6.53;;
67546;SDS011;54381;53.516;49.424;2022-07-05T05:19:14;18.17;;;5.38;;
67546;SDS011;54381;53.516;49.424;2022-07-05T05:21:40;11.25;;;3.65;;
67546;SDS011;54381;53.516;49.424;2022-07-05T05:24:06;10.10;;;4.65;;
67546;SDS011;54381;53.516;49.424;2022-07-05T05:26:33;10.10;;;2.97;;
67546;SDS011;54381;53.516;49.424;2022-07-05T05:28:59;10.60;;;2.88;;
67546;SDS011;54381;53.516;49.424;2022-07-05T05:31:25;11.25;;;5.80;;
67546;SDS011;54381;53.516;49.424;2022-07-05T05:33:52;29.70;;;7.68;;
67546;SDS011;54381;53.516;49.424;2022-07-05T05:36:18;28.70;;;13.68;;
67546;SDS011;54381;53.516;49.424;2022-07-05T05:38:44;18.20;;;9.88;;
67546;SDS011;54381;53.516;49.424;2022-07-05T05:41:10;21.73;;;8.00;;
67546;SDS011;54381;53.516;49.424;2022-07-05T05:43:36;19.65;;;7.75;;
67546;SDS011;54381;53.516;49.424;2022-07-05T05:46:03;27.30;;;11.95;;
67546;SDS011;54381;53.516;49.424;2022-07-05T05:48:29;21.75;;;8.50;;
67546;SDS011;54381;53.516;49.424;2022-07-05T05:50:55;17.98;;;6.38;;
67546;SDS011;54381;53.516;49.424;2022-07-05T05:53:22;5.25;;;2.00;;
67546;SDS011;54381;53.516;49.424;2022-07-05T05:55:48;5.10;;;1.45;;
67546;SDS011;54381;53.516;49.424;2022-07-05T05:58:15;5.60;;;1.38;;
67546;SDS011;54381;53.516;49.424;2022-07-05T06:00:43;4.63;;;2.15;;
67546;SDS011;54381;53.516;49.424;2022-07-05T06:03:16;6.70;;;1.02;;
67546;SDS011;54381;53.516;49.424;2022-07-05T06:05:42;4.28;;;0.75;;
67546;SDS011;54381;53.516;49.424;2022-07-05T06:08:08;6.68;;;2.30;;
67546;SDS011;54381;53.516;49.424;2022-07-05T06:10:35;5.00;;;1.58;;
67546;SDS011;54381;53.516;49.424;2022-07-05T06:13:02;4.53;;;2.20;;
67546;SDS011;54381;53.516;49.424;2022-07-05T06:15:30;7.72;;;2.70;;
67546;SDS011;54381;53.516;49.424;2022-07-05T06:17:57;6.00;;;1.75;;
67546;SDS011;54381;53.516;49.424;2022-07-05T06:20:24;7.45;;;0.80;;
67546;SDS011;54381;53.516;49.424;2022-07-05T06:22:52;6.28;;;1.00;;
67546;SDS011;54381;53.516;49.424;2022-07-05T06:25:19;6.85;;;1.00;;
67546;SDS011;54381;53.516;49.424;2022-07-05T06:27:46;6.78;;;1.50;;
67546;SDS011;54381;53.516;49.424;2022-07-05T06:30:19;10.18;;;1.70;;
67546;SDS011;54381;53.516;49.424;2022-07-05T06:32:47;1.55;;;0.80;;
67546;SDS011;54381;53.516;49.424;2022-07-05T06:35:14;3.03;;;0.80;;
67546;SDS011;54381;53.516;49.424;2022-07-05T06:40:15;3.22;;;1.10;;
67546;SDS011;54381;53.516;49.424;2022-07-05T06:45:09;8.65;;;1.70;;
67546;SDS011;54381;53.516;49.424;2022-07-05T06:47:36;6.20;;;1.10;;
67546;SDS011;54381;53.516;49.424;2022-07-05T06:50:03;4.70;;;1.33;;
67546;SDS011;54381;53.516;49.424;2022-07-05T06:52:30;9.90;;;1.85;;
67546;SDS011;54381;53.516;49.424;2022-07-05T06:55:00;9.80;;;2.10;;
67546;SDS011;54381;53.516;49.424;2022-07-05T06:57:27;10.15;;;0.90;;
67546;SDS011;54381;53.516;49.424;2022-07-05T06:59:54;5.60;;;0.68;;
67546;SDS011;54381;53.516;49.424;2022-07-05T07:02:20;3.38;;;0.95;;
67546;SDS011;54381;53.516;49.424;2022-07-05T07:04:47;16.60;;;1.25;;
67546;SDS011;54381;53.516;49.424;2022-07-05T07:07:14;7.07;;;0.80;;
67546;SDS011;54381;53.516;49.424;2022-07-05T07:09:59;2.15;;;0.95;;
67546;SDS011;54381;53.516;49.424;2022-07-05T07:12:27;7.85;;;1.00;;
67546;SDS011;54381;53.516;49.424;2022-07-05T07:14:55;4.28;;;1.50;;
67546;SDS011;54381;53.516;49.424;2022-07-05T07:17:22;1.88;;;0.90;;
67546;SDS011;54381;53.516;49.424;2022-07-05T07:19:49;5.65;;;2.80;;
67546;SDS011;54381;53.516;49.424;2022-07-05T07:22:16;11.15;;;4.05;;
67546;SDS011;54381;53.516;49.424;2022-07-05T07:24:42;10.75;;;2.08;;
67546;SDS011;54381;53.516;49.424;2022-07-05T07:27:08;6.15;;;2.55;;
67546;SDS011;54381;53.516;49.424;2022-07-05T07:29:35;16.63;;;7.68;;
67546;SDS011;54381;53.516;49.424;2022-07-05T07:32:03;7.28;;;2.78;;
67546;SDS011;54381;53.516;49.424;2022-07-05T07:34:31;11.73;;;4.35;;
67546;SDS011;54381;53.516;49.424;2022-07-05T07:36:57;1.73;;;0.88;;
67546;SDS011;54381;53.516;49.424;2022-07-05T07:39:24;14.07;;;1.10;;
67546;SDS011;54381;53.516;49.424;2022-07-05T07:41:51;3.05;;;0.90;;
67546;SDS011;54381;53.516;49.424;2022-07-05T07:44:18;6.57;;;0.70;;
67546;SDS011;54381;53.516;49.424;2022-07-05T07:46:45;1.48;;;0.65;;
67546;SDS011;54381;53.516;49.424;2022-07-05T07:49:12;4.65;;;0.90;;
67546;SDS011;54381;53.516;49.424;2022-07-05T07:51:38;2.83;;;0.60;;
67546;SDS011;54381;53.516;49.424;2022-07-05T07:54:06;1.95;;;0.70;;
67546;SDS011;54381;53.516;49.424;2022-07-05T07:56:32;4.38;;;0.70;;
67546;SDS011;54381;53.516;49.424;2022-07-05T07:58:58;2.72;;;0.80;;
67546;SDS011;54381;53.516;49.424;2022-07-05T08:01:24;8.35;;;0.73;;
67546;SDS011;54381;53.516;49.424;2022-07-05T08:03:51;4.13;;;0.82;;
67546;SDS011;54381;53.516;49.424;2022-07-05T08:06:17;4.03;;;0.90;;
67546;SDS011;54381;53.516;49.424;2022-07-05T08:08:44;2.08;;;0.85;;
67546;SDS011;54381;53.516;49.424;2022-07-05T08:11:11;5.78;;;0.98;;
67546;SDS011;54381;53.516;49.424;2022-07-05T08:13:38;2.15;;;1.05;;
67546;SDS011;54381;53.516;49.424;2022-07-05T08:16:06;4.60;;;1.30;;
67546;SDS011;54381;53.516;49.424;2022-07-05T08:18:33;0.93;;;0.50;;
67546;SDS011;54381;53.516;49.424;2022-07-05T08:21:18;3.28;;;0.90;;
67546;SDS011;54381;53.516;49.424;2022-07-05T08:23:57;4.28;;;1.00;;
67546;SDS011;54381;53.516;49.424;2022-07-05T08:26:25;3.38;;;0.80;;
67546;SDS011;54381;53.516;49.424;2022-07-05T08:28:52;1.70;;;0.80;;
67546;SDS011;54381;53.516;49.424;2022-07-05T08:31:18;2.50;;;1.10;;
67546;SDS011;54381;53.516;49.424;2022-07-05T08:33:46;6.30;;;1.23;;
67546;SDS011;54381;53.516;49.424;2022-07-05T08:36:13;7.78;;;1.77;;
67546;SDS011;54381;53.516;49.424;2022-07-05T08:38:39;5.20;;;1.30;;
67546;SDS011;54381;53.516;49.424;2022-07-05T08:41:06;5.55;;;1.17;;
67546;SDS011;54381;53.516;49.424;2022-07-05T08:43:35;2.10;;;1.02;;
67546;SDS011;54381;53.516;49.424;2022-07-05T08:46:05;2.65;;;0.90;;
67546;SDS011;54381;53.516;49.424;2022-07-05T08:48:34;5.05;;;1.00;;
67546;SDS011;54381;53.516;49.424;2022-07-05T08:51:11;4.53;;;0.90;;
67546;SDS011;54381;53.516;49.424;2022-07-05T08:53:40;2.38;;;0.90;;
67546;SDS011;54381;53.516;49.424;2022-07-05T08:56:07;4.05;;;1.02;;
67546;SDS011;54381;53.516;49.424;2022-07-05T08:58:35;4.57;;;1.23;;
67546;SDS011;54381;53.516;49.424;2022-07-05T09:01:02;6.30;;;1.30;;
67546;SDS011;54381;53.516;49.424;2022-07-05T09:03:32;8.95;;;3.50;;
67546;SDS011;54381;53.516;49.424;2022-07-05T09:06:02;1.92;;;1.13;;
67546;SDS011;54381;53.516;49.424;2022-07-05T09:08:30;6.32;;;1.30;;
67546;SDS011;54381;53.516;49.424;2022-07-05T09:11:04;4.97;;;1.17;;
67546;SDS011;54381;53.516;49.424;2022-07-05T09:13:33;4.45;;;1.67;;
67546;SDS011;54381;53.516;49.424;2022-07-05T09:16:01;6.55;;;1.80;;
67546;SDS011;54381;53.516;49.424;2022-07-05T09:18:40;7.38;;;1.30;;
67546;SDS011;54381;53.516;49.424;2022-07-05T09:23:59;5.85;;;1.20;;
67546;SDS011;54381;53.516;49.424;2022-07-05T09:26:46;3.63;;;1.30;;
67546;SDS011;54381;53.516;49.424;2022-07-05T09:29:17;2.92;;;1.63;;
67546;SDS011;54381;53.516;49.424;2022-07-05T09:31:45;1.85;;;1.20;;
67546;SDS011;54381;53.516;49.424;2022-07-05T09:34:15;3.08;;;1.15;;
67546;SDS011;54381;53.516;49.424;2022-07-05T09:37:01;4.15;;;1.45;;
67546;SDS011;54381;53.516;49.424;2022-07-05T09:44:49;4.60;;;1.80;;
67546;SDS011;54381;53.516;49.424;2022-07-05T09:47:16;9.68;;;2.45;;
67546;SDS011;54381;53.516;49.424;2022-07-05T09:49:44;3.30;;;2.00;;
67546;SDS011;54381;53.516;49.424;2022-07-05T09:52:36;4.05;;;1.38;;
67546;SDS011;54381;53.516;49.424;2022-07-05T09:57:35;12.50;;;1.80;;
67546;SDS011;54381;53.516;49.424;2022-07-05T10:00:06;12.77;;;1.38;;
67546;SDS011;54381;53.516;49.424;2022-07-05T10:02:55;4.13;;;1.35;;
67546;SDS011;54381;53.516;49.424;2022-07-05T10:05:32;3.30;;;1.25;;
67546;SDS011;54381;53.516;49.424;2022-07-05T10:07:59;5.43;;;1.40;;
67546;SDS011;54381;53.516;49.424;2022-07-05T10:10:30;2.40;;;1.30;;
67546;SDS011;54381;53.516;49.424;2022-07-05T10:12:58;6.38;;;1.35;;
67546;SDS011;54381;53.516;49.424;2022-07-05T10:15:28;3.58;;;1.83;;
67546;SDS011;54381;53.516;49.424;2022-07-05T10:18:06;14.20;;;4.15;;
67546;SDS011;54381;53.516;49.424;2022-07-05T10:23:07;11.60;;;5.63;;
67546;SDS011;54381;53.516;49.424;2022-07-05T10:25:41;9.13;;;3.42;;
67546;SDS011;54381;53.516;49.424;2022-07-05T10:28:09;8.82;;;3.22;;
67546;SDS011;54381;53.516;49.424;2022-07-05T10:30:36;10.40;;;3.40;;
67546;SDS011;54381;53.516;49.424;2022-07-05T10:33:03;5.47;;;1.85;;
67546;SDS011;54381;53.516;49.424;2022-07-05T10:35:31;3.80;;;1.23;;
67546;SDS011;54381;53.516;49.424;2022-07-05T10:37:58;5.45;;;1.30;;
67546;SDS011;54381;53.516;49.424;2022-07-05T10:40:26;3.00;;;1.45;;
67546;SDS011;54381;53.516;49.424;2022-07-05T10:42:58;1.67;;;1.00;;
67546;SDS011;54381;53.516;49.424;2022-07-05T10:45:30;4.78;;;1.52;;
67546;SDS011;54381;53.516;49.424;2022-07-05T10:56:09;6.95;;;1.20;;
67546;SDS011;54381;53.516;49.424;2022-07-05T10:58:41;11.13;;;1.85;;
67546;SDS011;54381;53.516;49.424;2022-07-05T11:03:47;8.93;;;2.92;;
67546;SDS011;54381;53.516;49.424;2022-07-05T11:11:39;4.28;;;1.75;;
67546;SDS011;54381;53.516;49.424;2022-07-05T11:17:11;6.75;;;1.75;;
67546;SDS011;54381;53.516;49.424;2022-07-05T11:20:31;11.95;;;3.45;;
67546;SDS011;54381;53.516;49.424;2022-07-05T11:23:07;7.50;;;1.90;;
67546;SDS011;54381;53.516;49.424;2022-07-05T11:25:38;11.98;;;1.80;;
67546;SDS011;54381;53.516;49.424;2022-07-05T11:28:18;3.35;;;1.20;;
67546;SDS011;54381;53.516;49.424;2022-07-05T11:30:58;5.38;;;1.20;;
67546;SDS011;54381;53.516;49.424;2022-07-05T11:33:26;2.38;;;1.40;;
67546;SDS011;54381;53.516;49.424;2022-07-05T11:35:56;3.30;;;1.50;;
67546;SDS011;54381;53.516;49.424;2022-07-05T11:38:23;4.35;;;1.30;;
67546;SDS011;54381;53.516;49.424;2022-07-05T11:40:50;3.10;;;1.42;;
67546;SDS011;54381;53.516;49.424;2022-07-05T11:43:24;6.30;;;1.75;;
67546;SDS011;54381;53.516;49.424;2022-07-05T11:45:55;5.45;;;2.10;;
67546;SDS011;54381;53.516;49.424;2022-07-05T11:48:23;7.72;;;3.03;;
67546;SDS011;54381;53.516;49.424;2022-07-05T11:50:51;19.88;;;4.47;;
67546;SDS011;54381;53.516;49.424;2022-07-05T11:53:30;9.88;;;3.28;;
67546;SDS011;54381;53.516;49.424;2022-07-05T11:55:57;6.88;;;2.25;;
67546;SDS011;54381;53.516;49.424;2022-07-05T11:58:31;2.88;;;1.35;;
67546;SDS011;54381;53.516;49.424;2022-07-05T12:00:58;4.22;;;1.20;;
67546;SDS011;54381;53.516;49.424;2022-07-05T12:03:27;3.92;;;1.88;;
67546;SDS011;54381;53.516;49.424;2022-07-05T12:05:56;8.38;;;2.85;;
67546;SDS011;54381;53.516;49.424;2022-07-05T12:08:27;11.82;;;3.30;;
67546;SDS011;54381;53.516;49.424;2022-07-05T12:10:57;11.57;;;2.85;;
67546;SDS011;54381;53.516;49.424;2022-07-05T12:13:52;16.63;;;7.03;;
67546;SDS011;54381;53.516;49.424;2022-07-05T12:16:23;17.90;;;6.32;;
67546;SDS011;54381;53.516;49.424;2022-07-05T12:18:56;15.35;;;3.78;;
67546;SDS011;54381;53.516;49.424;2022-07-05T12:21:31;6.47;;;2.22;;
67546;SDS011;54381;53.516;49.424;2022-07-05T12:24:05;5.38;;;2.00;;
67546;SDS011;54381;53.516;49.424;2022-07-05T12:26:47;6.20;;;2.35;;
67546;SDS011;54381;53.516;49.424;2022-07-05T12:29:21;4.32;;;2.35;;
67546;SDS011;54381;53.516;49.424;2022-07-05T12:32:07;9.50;;;3.72;;
67546;SDS011;54381;53.516;49.424;2022-07-05T12:34:39;17.67;;;3.10;;
67546;SDS011;54381;53.516;49.424;2022-07-05T12:37:30;5.53;;;3.30;;
67546;SDS011;54381;53.516;49.424;2022-07-05T12:40:07;5.97;;;2.90;;
67546;SDS011;54381;53.516;49.424;2022-07-05T12:43:03;16.83;;;5.70;;
67546;SDS011;54381;53.516;49.424;2022-07-05T12:46:02;21.40;;;5.15;;
67546;SDS011;54381;53.516;49.424;2022-07-05T12:48:34;26.38;;;8.43;;
67546;SDS011;54381;53.516;49.424;2022-07-05T12:51:13;23.55;;;9.68;;
67546;SDS011;54381;53.516;49.424;2022-07-05T12:54:17;16.25;;;6.80;;
67546;SDS011;54381;53.516;49.424;2022-07-05T13:00:35;19.63;;;4.88;;
67546;SDS011;54381;53.516;49.424;2022-07-05T13:03:16;16.48;;;5.15;;
67546;SDS011;54381;53.516;49.424;2022-07-05T13:06:14;7.38;;;2.20;;
67546;SDS011;54381;53.516;49.424;2022-07-05T13:08:57;10.20;;;2.30;;
67546;SDS011;54381;53.516;49.424;2022-07-05T13:11:36;10.63;;;1.73;;
67546;SDS011;54381;53.516;49.424;2022-07-05T13:14:21;7.82;;;2.55;;
67546;SDS011;54381;53.516;49.424;2022-07-05T13:16:58;4.50;;;1.63;;
67546;SDS011;54381;53.516;49.424;2022-07-05T13:19:33;13.10;;;2.38;;
67546;SDS011;54381;53.516;49.424;2022-07-05T13:22:29;6.78;;;2.55;;
67546;SDS011;54381;53.516;49.424;2022-07-05T13:24:59;7.13;;;2.10;;
67546;SDS011;54381;53.516;49.424;2022-07-05T13:27:25;28.75;;;6.30;;
67546;SDS011;54381;53.516;49.424;2022-07-05T13:29:52;14.98;;;6.15;;
67546;SDS011;54381;53.516;49.424;2022-07-05T13:32:18;20.58;;;6.80;;
67546;SDS011;54381;53.516;49.424;2022-07-05T13:34:48;15.80;;;7.10;;
67546;SDS011;54381;53.516;49.424;2022-07-05T13:37:16;11.02;;;4.40;;
67546;SDS011;54381;53.516;49.424;2022-07-05T13:39:42;11.05;;;2.92;;
67546;SDS011;54381;53.516;49.424;2022-07-05T13:42:09;5.65;;;2.50;;
67546;SDS011;54381;53.516;49.424;2022-07-05T13:44:36;29.85;;;7.93;;
67546;SDS011;54381;53.516;49.424;2022-07-05T13:47:02;22.55;;;8.40;;
67546;SDS011;54381;53.516;49.424;2022-07-05T13:49:32;19.67;;;7.45;;
67546;SDS011;54381;53.516;49.424;2022-07-05T13:51:59;8.52;;;3.80;;
67546;SDS011;54381;53.516;49.424;2022-07-05T13:54:30;6.70;;;3.03;;
67546;SDS011;54381;53.516;49.424;2022-07-05T13:57:09;11.00;;;3.45;;
67546;SDS011;54381;53.516;49.424;2022-07-05T13:59:40;18.55;;;6.43;;
67546;SDS011;54381;53.516;49.424;2022-07-05T14:02:07;17.13;;;6.10;;
67546;SDS011;54381;53.516;49.424;2022-07-05T14:04:33;14.32;;;4.45;;
67546;SDS011;54381;53.516;49.424;2022-07-05T14:07:03;11.75;;;5.25;;
67546;SDS011;54381;53.516;49.424;2022-07-05T14:09:33;29.02;;;10.60;;
67546;SDS011;54381;53.516;49.424;2022-07-05T14:12:02;15.25;;;5.53;;
67546;SDS011;54381;53.516;49.424;2022-07-05T14:14:28;11.68;;;3.08;;
67546;SDS011;54381;53.516;49.424;2022-07-05T14:16:54;7.65;;;2.60;;
67546;SDS011;54381;53.516;49.424;2022-07-05T14:19:27;6.72;;;2.85;;
67546;SDS011;54381;53.516;49.424;2022-07-05T14:22:00;6.85;;;2.92;;
67546;SDS011;54381;53.516;49.424;2022-07-05T14:24:30;10.88;;;3.00;;
67546;SDS011;54381;53.516;49.424;2022-07-05T14:26:59;12.77;;;2.72;;
67546;SDS011;54381;53.516;49.424;2022-07-05T14:29:30;20.35;;;6.95;;
67546;SDS011;54381;53.516;49.424;2022-07-05T14:32:11;12.50;;;5.05;;
67546;SDS011;54381;53.516;49.424;2022-07-05T14:34:51;12.65;;;4.50;;
67546;SDS011;54381;53.516;49.424;2022-07-05T14:37:18;13.25;;;6.00;;
67546;SDS011;54381;53.516;49.424;2022-07-05T14:39:47;20.60;;;7.57;;
67546;SDS011;54381;53.516;49.424;2022-07-05T14:42:15;30.98;;;11.02;;
67546;SDS011;54381;53.516;49.424;2022-07-05T14:44:59;20.55;;;9.25;;
67546;SDS011;54381;53.516;49.424;2022-07-05T14:47:43;47.80;;;23.60;;
67546;SDS011;54381;53.516;49.424;2022-07-05T14:50:17;23.13;;;7.93;;
67546;SDS011;54381;53.516;49.424;2022-07-05T14:52:55;23.23;;;10.20;;
67546;SDS011;54381;53.516;49.424;2022-07-05T14:55:31;39.53;;;13.52;;
67546;SDS011;54381;53.516;49.424;2022-07-05T14:58:22;27.13;;;10.90;;
67546;SDS011;54381;53.516;49.424;2022-07-05T15:01:45;40.85;;;16.38;;
67546;SDS011;54381;53.516;49.424;2022-07-05T15:04:23;42.42;;;17.05;;
67546;SDS011;54381;53.516;49.424;2022-07-05T15:06:53;49.53;;;19.88;;
67546;SDS011;54381;53.516;49.424;2022-07-05T15:09:25;40.00;;;14.52;;
67546;SDS011;54381;53.516;49.424;2022-07-05T15:11:58;51.03;;;20.85;;
67546;SDS011;54381;53.516;49.424;2022-07-05T15:14:25;30.77;;;9.18;;
67546;SDS011;54381;53.516;49.424;2022-07-05T15:17:03;13.65;;;5.78;;
67546;SDS011;54381;53.516;49.424;2022-07-05T15:19:42;13.93;;;7.32;;
67546;SDS011;54381;53.516;49.424;2022-07-05T15:22:17;31.25;;;13.70;;